Ne plus se rappeler de moi
Bonjour et Bienvenue
Pas de session ouverte
Dimanche 26/06/2016
d:\inetpub\wwwroot\acrroussillon\reservation\ACR\IMAGES\IMG1.JPGd:\inetpub\wwwroot\acrroussillon\reservation\ACR\IMAGES\IMG2.JPGd:\inetpub\wwwroot\acrroussillon\reservation\ACR/IMAGES/IMG3.jpg
00:00:00
Horaires du 26/06/2016 (Données à titre indicatif seulement).
Lever du soleil : 06h12 - Coucher du soleil : 21h31 (Heure Locale)
Jour aéronautique : 05h42 - Nuit aéronautique : 22h01 (Heure Locale)
Planning des réservations des aéronefs
Planning des réservations des aéronefs
2016/06/26 07:30
LFMP 260730Z AUTO 31012KT 9999 OVC066 22/09 Q1020 TEMPO 30020G30KT
Planning des réservations des aéronefs
2016/06/26 03:25
TAF LFMP 260200Z 2603/2703 31015KT CAVOK
TEMPO 2606/2622 30020G30KT
Informations sur les aéronefs
Informations sur les aéronefs
Modifications des Types de vols
ATTENTION PLUS DE PAIEMENT EN LIGNE DEPUIS LA MAISON
AEROCLUB DU ROUSSILLON. AVENUE MAURICE BELLONTE. 66000 PERPIGNAN. Tel : 04.68.73.48.18 Fax : 09.55.16.18.97 Courriel : aeroclub-roussillon@hotmail.fr
 METAR / TAF
LIENS UTILES
envoyer un e-mail
d:\inetpub\wwwroot\acrroussillon\reservation\ACR/IMAGES/Logo.jpg
Identifiez vous pour interaction
d:\inetpub\wwwroot\acrroussillon\reservation\ACR/IMAGES/Logo.jpg
Aéro-Club du Roussillon